createdAt,value
2023-02-11T00:00:40.470Z,5.69
2023-02-11T00:03:07.074Z,5.69
2023-02-11T00:05:33.927Z,5.69
2023-02-11T00:08:00.390Z,5.67
2023-02-11T00:10:26.969Z,5.68
2023-02-11T00:12:53.427Z,5.67
2023-02-11T00:15:21.222Z,5.66
2023-02-11T00:17:47.739Z,5.68
2023-02-11T00:20:14.505Z,5.66
2023-02-11T00:22:40.982Z,5.66
2023-02-11T00:25:07.624Z,5.67
2023-02-11T00:27:34.170Z,5.66
2023-02-11T00:30:02.273Z,5.66
2023-02-11T00:32:30.418Z,5.64
2023-02-11T00:34:56.943Z,5.64
2023-02-11T00:37:23.471Z,5.65
2023-02-11T00:39:50.252Z,5.64
2023-02-11T00:42:17.030Z,5.64
2023-02-11T00:44:45.027Z,5.62
2023-02-11T00:47:11.690Z,5.63
2023-02-11T00:49:40.291Z,5.62
2023-02-11T00:52:06.894Z,5.62
2023-02-11T00:54:34.361Z,5.61
2023-02-11T00:57:00.827Z,5.61
2023-02-11T00:59:27.504Z,5.61
2023-02-11T01:01:54.043Z,5.61
2023-02-11T01:04:20.735Z,5.60
2023-02-11T01:06:47.628Z,5.60
2023-02-11T01:09:14.221Z,5.57
2023-02-11T01:11:40.833Z,5.56
2023-02-11T01:14:07.468Z,5.54
2023-02-11T01:16:33.930Z,5.52
2023-02-11T01:19:00.446Z,5.51
2023-02-11T01:21:26.955Z,5.50
2023-02-11T01:23:53.388Z,5.48
2023-02-11T01:26:20.035Z,5.45
2023-02-11T01:28:46.807Z,5.43
2023-02-11T01:31:13.833Z,5.40
2023-02-11T01:33:40.911Z,5.39
2023-02-11T01:36:08.776Z,5.38
2023-02-11T01:38:35.490Z,5.36
2023-02-11T01:41:14.530Z,5.37
2023-02-11T01:43:44.540Z,5.37
2023-02-11T01:46:23.574Z,5.38
2023-02-11T01:49:20.065Z,5.37
2023-02-11T01:52:14.373Z,5.35
2023-02-11T01:55:04.421Z,5.34
2023-02-11T01:57:34.850Z,5.32
2023-02-11T02:00:07.529Z,5.30
2023-02-11T02:02:52.495Z,5.29
2023-02-11T02:05:40.865Z,5.27
2023-02-11T02:08:22.754Z,5.27
2023-02-11T02:10:54.646Z,5.26
2023-02-11T02:13:21.200Z,5.25
2023-02-11T02:15:53.649Z,5.23
2023-02-11T02:18:39.002Z,5.23
2023-02-11T02:21:08.229Z,5.21
2023-02-11T02:23:40.781Z,5.20
2023-02-11T02:26:16.488Z,5.17
2023-02-11T02:29:11.656Z,5.14
2023-02-11T02:31:56.405Z,5.10
2023-02-11T02:34:44.462Z,5.06
2023-02-11T02:37:55.134Z,5.03
2023-02-11T02:40:29.502Z,5.00
2023-02-11T02:42:57.687Z,4.99
2023-02-11T02:45:24.641Z,4.99
2023-02-11T02:47:51.056Z,4.98
2023-02-11T02:50:30.036Z,4.96
2023-02-11T02:53:11.838Z,4.97
2023-02-11T02:55:51.601Z,4.96
2023-02-11T02:58:33.044Z,4.96
2023-02-11T03:01:28.663Z,4.98
2023-02-11T03:04:01.293Z,4.97
2023-02-11T03:06:46.408Z,4.98
2023-02-11T03:09:44.229Z,4.97
2023-02-11T03:12:13.229Z,4.97
2023-02-11T03:14:41.012Z,4.97
2023-02-11T03:17:10.240Z,4.98
2023-02-11T03:19:43.652Z,4.97
2023-02-11T03:22:25.626Z,4.94
2023-02-11T03:24:52.060Z,4.93
2023-02-11T03:27:27.385Z,4.92
2023-02-11T03:30:32.944Z,4.92
2023-02-11T03:33:22.637Z,4.90
2023-02-11T03:35:56.449Z,4.90
2023-02-11T03:38:37.435Z,4.90
2023-02-11T03:41:07.812Z,4.89
2023-02-11T03:43:41.910Z,4.89
2023-02-11T03:46:11.989Z,4.88
2023-02-11T03:48:42.348Z,4.86
2023-02-11T03:51:11.208Z,4.83
2023-02-11T03:53:41.104Z,4.82
2023-02-11T03:56:12.664Z,4.79
2023-02-11T03:58:39.169Z,4.78
2023-02-11T04:01:08.813Z,4.77
2023-02-11T04:03:35.813Z,4.75
2023-02-11T04:06:02.482Z,4.74
2023-02-11T04:08:29.106Z,4.75
2023-02-11T04:10:55.590Z,4.76
2023-02-11T04:13:22.510Z,4.78
2023-02-11T04:15:49.271Z,4.81
2023-02-11T04:18:15.833Z,4.84
2023-02-11T04:20:42.514Z,4.84
2023-02-11T04:23:10.378Z,4.84
2023-02-11T04:25:36.914Z,4.85
2023-02-11T04:28:03.610Z,4.87
2023-02-11T04:30:30.188Z,4.88
2023-02-11T04:32:58.544Z,4.89
2023-02-11T04:35:25.095Z,4.91
2023-02-11T04:37:51.581Z,4.92
2023-02-11T04:40:18.175Z,4.91
2023-02-11T04:42:44.610Z,4.94
2023-02-11T04:45:11.303Z,4.95
2023-02-11T04:47:37.964Z,4.96
2023-02-11T04:50:04.824Z,4.97
2023-02-11T04:52:31.262Z,4.98
2023-02-11T04:54:57.796Z,4.99
2023-02-11T04:57:24.315Z,4.99
2023-02-11T04:59:50.798Z,5.00
2023-02-11T05:02:17.357Z,5.01
2023-02-11T05:04:43.782Z,5.02
2023-02-11T05:07:11.544Z,5.03
2023-02-11T05:09:38.061Z,5.05
2023-02-11T05:12:04.613Z,5.07
2023-02-11T05:14:31.123Z,5.07
2023-02-11T05:16:57.772Z,5.08
2023-02-11T05:19:24.277Z,5.08
2023-02-11T05:22:02.246Z,5.10
2023-02-11T05:24:33.093Z,5.11
2023-02-11T05:26:59.963Z,5.11
2023-02-11T05:29:26.492Z,5.13
2023-02-11T05:31:53.050Z,5.13
2023-02-11T05:34:19.596Z,5.14
2023-02-11T05:36:46.078Z,5.15
2023-02-11T05:39:12.590Z,5.16
2023-02-11T05:41:39.076Z,5.16
2023-02-11T05:44:05.578Z,5.19
2023-02-11T05:46:32.088Z,5.18
2023-02-11T05:48:58.720Z,5.19
2023-02-11T05:51:25.339Z,5.19
2023-02-11T05:53:53.480Z,5.21
2023-02-11T05:56:20.061Z,5.22
2023-02-11T05:58:46.696Z,5.22
2023-02-11T06:01:13.166Z,5.23
2023-02-11T06:03:39.701Z,5.24
2023-02-11T06:06:11.538Z,5.24
2023-02-11T06:08:40.477Z,5.25
2023-02-11T06:11:07.237Z,5.27
2023-02-11T06:13:34.179Z,5.27
2023-02-11T06:16:02.461Z,5.29
2023-02-11T06:18:29.490Z,5.30
2023-02-11T06:20:56.593Z,5.31
2023-02-11T06:23:23.471Z,5.32
2023-02-11T06:25:50.911Z,5.33
2023-02-11T06:28:17.719Z,5.33
2023-02-11T06:30:44.521Z,5.35
2023-02-11T06:33:11.026Z,5.37
2023-02-11T06:35:40.758Z,5.38
2023-02-11T06:38:07.234Z,5.39
2023-02-11T06:40:33.861Z,5.40
2023-02-11T06:43:00.439Z,5.41
2023-02-11T06:45:26.950Z,5.41
2023-02-11T06:47:53.537Z,5.43
2023-02-11T06:50:20.150Z,5.43
2023-02-11T06:52:46.637Z,5.44
2023-02-11T06:55:13.674Z,5.44
2023-02-11T06:57:40.234Z,5.44
2023-02-11T07:00:07.335Z,5.45
2023-02-11T07:02:33.969Z,5.46
2023-02-11T07:05:00.467Z,5.47
2023-02-11T07:07:27.807Z,5.51
2023-02-11T07:09:54.292Z,5.52
2023-02-11T07:12:20.820Z,5.54
2023-02-11T07:14:47.309Z,5.57
2023-02-11T07:17:13.916Z,5.58
2023-02-11T07:19:40.520Z,5.59
2023-02-11T07:22:07.151Z,5.61
2023-02-11T07:24:33.589Z,5.62
2023-02-11T07:27:00.058Z,5.64
2023-02-11T07:29:26.630Z,5.66
2023-02-11T07:31:53.094Z,5.69
2023-02-11T07:34:19.685Z,5.73
2023-02-11T07:36:46.326Z,5.74
2023-02-11T07:39:12.964Z,5.76
2023-02-11T07:41:39.502Z,5.79
2023-02-11T07:44:06.322Z,5.81
2023-02-11T07:46:34.542Z,5.82
2023-02-11T07:49:01.290Z,5.83
2023-02-11T07:51:30.107Z,5.86
2023-02-11T07:53:58.774Z,5.87
2023-02-11T07:56:25.476Z,5.88
2023-02-11T07:58:52.070Z,5.90
2023-02-11T08:01:25.567Z,5.92
2023-02-11T08:03:52.173Z,5.92
2023-02-11T08:06:20.950Z,5.95
2023-02-11T08:08:48.483Z,5.95
2023-02-11T08:11:17.237Z,5.99
2023-02-11T08:13:44.338Z,6.00
2023-02-11T08:16:22.834Z,6.06
2023-02-11T08:18:50.661Z,6.09
2023-02-11T08:21:17.336Z,6.11
2023-02-11T08:23:44.730Z,6.14
2023-02-11T08:26:18.138Z,6.16
2023-02-11T08:28:46.187Z,6.16
2023-02-11T08:31:18.983Z,6.18
2023-02-11T08:33:46.212Z,6.23
2023-02-11T08:36:17.931Z,6.24
2023-02-11T08:38:45.261Z,6.25
2023-02-11T08:41:14.823Z,6.28
2023-02-11T08:43:42.427Z,6.30
2023-02-11T08:46:12.049Z,6.33
2023-02-11T08:48:38.620Z,6.36
2023-02-11T08:51:32.974Z,6.40
2023-02-11T08:54:00.559Z,6.41
2023-02-11T08:56:27.780Z,6.44
2023-02-11T08:58:54.840Z,6.48
2023-02-11T09:01:24.730Z,6.52
2023-02-11T09:03:51.328Z,6.57
2023-02-11T09:06:18.807Z,6.62
2023-02-11T09:08:49.383Z,6.66
2023-02-11T09:11:18.000Z,6.72
2023-02-11T09:13:45.151Z,6.77
2023-02-11T09:16:27.101Z,6.82
2023-02-11T09:18:53.636Z,6.88
2023-02-11T09:21:20.262Z,6.92
2023-02-11T09:23:47.761Z,6.99
2023-02-11T09:26:19.864Z,7.03
2023-02-11T09:28:47.105Z,7.06
2023-02-11T09:31:16.556Z,7.09
2023-02-11T09:33:48.840Z,7.13
2023-02-11T09:36:21.237Z,7.17
2023-02-11T09:38:48.645Z,7.21
2023-02-11T09:41:24.257Z,7.22
2023-02-11T09:43:54.663Z,7.28
2023-02-11T09:46:23.424Z,7.32
2023-02-11T09:48:53.538Z,7.37
2023-02-11T09:51:29.908Z,7.42
2023-02-11T09:54:02.150Z,7.46
2023-02-11T09:56:31.398Z,7.50
2023-02-11T09:58:57.893Z,7.56
2023-02-11T10:01:39.077Z,7.59
2023-02-11T10:04:20.816Z,7.64
2023-02-11T10:07:00.334Z,7.69
2023-02-11T10:09:42.931Z,7.74
2023-02-11T10:12:15.371Z,7.77
2023-02-11T10:15:03.307Z,7.84
2023-02-11T10:17:38.794Z,7.89
2023-02-11T10:20:17.056Z,7.95
2023-02-11T10:22:49.386Z,8.08
2023-02-11T10:25:38.705Z,8.18
2023-02-11T10:28:19.742Z,8.31
2023-02-11T10:30:57.458Z,8.41
2023-02-11T10:33:32.551Z,8.57
2023-02-11T10:35:59.508Z,8.59
2023-02-11T10:38:27.763Z,8.62
2023-02-11T10:40:54.362Z,8.66
2023-02-11T10:43:26.866Z,8.67
2023-02-11T10:45:55.868Z,8.69
2023-02-11T10:48:39.849Z,8.67
2023-02-11T10:51:28.860Z,8.68
2023-02-11T10:54:04.801Z,8.63
2023-02-11T10:56:34.292Z,8.64
2023-02-11T10:59:22.102Z,8.63
2023-02-11T11:01:56.420Z,8.63
2023-02-11T11:04:42.956Z,8.65
2023-02-11T11:07:12.446Z,8.72
2023-02-11T11:10:29.550Z,8.79
2023-02-11T11:12:56.050Z,8.85
2023-02-11T11:15:29.152Z,8.95
2023-02-11T11:18:23.232Z,8.99
2023-02-11T11:21:12.588Z,9.03
2023-02-11T11:23:39.714Z,9.02
2023-02-11T11:26:12.610Z,9.05
2023-02-11T11:28:53.256Z,9.02
2023-02-11T11:31:33.394Z,9.03
2023-02-11T11:34:03.704Z,9.09
2023-02-11T11:36:40.026Z,9.18
2023-02-11T11:39:21.509Z,9.24
2023-02-11T11:41:54.524Z,9.28
2023-02-11T11:44:27.828Z,9.42
2023-02-11T11:47:12.618Z,9.44
2023-02-11T11:49:47.435Z,9.45
2023-02-11T11:52:29.250Z,9.53
2023-02-11T11:55:07.724Z,9.60
2023-02-11T11:57:37.248Z,9.61
2023-02-11T12:00:05.019Z,9.66
2023-02-11T12:03:09.512Z,9.70
2023-02-11T12:06:01.084Z,9.77
2023-02-11T12:09:01.583Z,9.76
2023-02-11T12:11:39.705Z,9.76
2023-02-11T12:14:30.557Z,9.79
2023-02-11T12:17:22.389Z,9.80
2023-02-11T12:20:01.226Z,9.82
2023-02-11T12:22:48.308Z,9.86
2023-02-11T12:25:26.736Z,9.90
2023-02-11T12:28:07.192Z,9.97
2023-02-11T12:31:27.595Z,10.02
2023-02-11T12:34:12.804Z,9.98
2023-02-11T12:37:19.828Z,9.89
2023-02-11T12:39:57.910Z,9.81
2023-02-11T12:42:57.677Z,9.76
2023-02-11T12:45:38.564Z,9.74
2023-02-11T12:48:10.848Z,9.75
2023-02-11T12:51:26.469Z,9.76
2023-02-11T12:54:11.478Z,9.79
2023-02-11T12:56:46.368Z,9.86
2023-02-11T12:59:31.479Z,9.86
2023-02-11T13:02:01.060Z,9.82
2023-02-11T13:04:37.324Z,9.88
2023-02-11T13:07:11.660Z,9.85
2023-02-11T13:09:51.637Z,9.86
2023-02-11T13:12:37.526Z,9.89
2023-02-11T13:15:07.728Z,9.93
2023-02-11T13:17:44.880Z,10.02
2023-02-11T13:20:31.855Z,10.12
2023-02-11T13:23:11.418Z,10.28
2023-02-11T13:25:48.860Z,10.31
2023-02-11T13:28:17.864Z,10.38
2023-02-11T13:30:51.665Z,10.32
2023-02-11T13:33:30.167Z,10.37
2023-02-11T13:35:56.617Z,10.31
2023-02-11T13:38:25.645Z,10.30
2023-02-11T13:41:18.058Z,10.32
2023-02-11T13:43:45.136Z,10.30
2023-02-11T13:46:13.713Z,10.24
2023-02-11T13:48:47.955Z,10.24
2023-02-11T13:51:17.510Z,10.25
2023-02-11T13:53:55.787Z,10.26
2023-02-11T13:56:32.798Z,10.22
2023-02-11T13:59:02.416Z,10.18
2023-02-11T14:02:07.218Z,10.18
2023-02-11T14:04:52.909Z,10.18
2023-02-11T14:07:50.521Z,10.18
2023-02-11T14:10:38.763Z,10.20
2023-02-11T14:13:19.744Z,10.26
2023-02-11T14:15:46.819Z,10.28
2023-02-11T14:18:35.118Z,10.28
2023-02-11T14:21:27.812Z,10.28
2023-02-11T14:24:14.369Z,10.25
2023-02-11T14:26:49.966Z,10.25
2023-02-11T14:29:36.986Z,10.22
2023-02-11T14:32:31.330Z,10.20
2023-02-11T14:35:43.164Z,10.15
2023-02-11T14:38:47.100Z,10.15
2023-02-11T14:41:26.976Z,10.15
2023-02-11T14:44:15.197Z,10.15
2023-02-11T14:46:50.392Z,10.12
2023-02-11T14:49:25.170Z,10.08
2023-02-11T14:51:54.396Z,10.02
2023-02-11T14:54:26.771Z,10.04
2023-02-11T14:57:18.000Z,10.04
2023-02-11T15:00:02.186Z,10.03
2023-02-11T15:02:33.919Z,9.98
2023-02-11T15:05:18.883Z,10.01
2023-02-11T15:07:51.453Z,10.01
2023-02-11T15:10:27.169Z,10.00
2023-02-11T15:12:54.453Z,10.00
2023-02-11T15:15:21.487Z,9.98
2023-02-11T15:17:48.360Z,9.97
2023-02-11T15:20:41.175Z,9.93
2023-02-11T15:23:12.553Z,9.88
2023-02-11T15:25:51.252Z,9.88
2023-02-11T15:28:28.913Z,9.85
2023-02-11T15:30:58.631Z,9.81
2023-02-11T15:33:25.967Z,9.73
2023-02-11T15:35:52.544Z,9.68
2023-02-11T15:38:19.367Z,9.64
2023-02-11T15:40:54.726Z,9.60
2023-02-11T15:43:21.377Z,9.53
2023-02-11T15:45:56.403Z,9.48
2023-02-11T15:48:30.715Z,9.45
2023-02-11T15:51:00.450Z,9.42
2023-02-11T15:53:40.468Z,9.35
2023-02-11T15:56:17.792Z,9.32
2023-02-11T15:58:47.486Z,9.26
2023-02-11T16:01:14.664Z,9.20
2023-02-11T16:03:43.338Z,9.17
2023-02-11T16:06:23.610Z,9.14
2023-02-11T16:09:08.536Z,9.10
2023-02-11T16:11:56.714Z,9.06
2023-02-11T16:14:23.517Z,9.03
2023-02-11T16:16:53.188Z,8.99
2023-02-11T16:19:23.592Z,8.98
2023-02-11T16:21:53.927Z,8.92
2023-02-11T16:24:41.556Z,8.87
2023-02-11T16:27:21.499Z,8.80
2023-02-11T16:29:52.246Z,8.78
2023-02-11T16:32:24.370Z,8.76
2023-02-11T16:34:52.219Z,8.73
2023-02-11T16:37:18.973Z,8.69
2023-02-11T16:39:46.289Z,8.68
2023-02-11T16:42:13.716Z,8.67
2023-02-11T16:44:40.512Z,8.65
2023-02-11T16:47:16.926Z,8.65
2023-02-11T16:49:43.662Z,8.63
2023-02-11T16:52:14.582Z,8.61
2023-02-11T16:54:41.377Z,8.58
2023-02-11T16:57:16.613Z,8.61
2023-02-11T16:59:43.540Z,8.59
2023-02-11T17:02:18.296Z,8.57
2023-02-11T17:04:45.471Z,8.55
2023-02-11T17:07:12.622Z,8.53
2023-02-11T17:09:39.194Z,8.51
2023-02-11T17:12:06.107Z,8.47
2023-02-11T17:14:32.535Z,8.45
2023-02-11T17:16:58.991Z,8.44
2023-02-11T17:19:25.539Z,8.40
2023-02-11T17:21:52.700Z,8.38
2023-02-11T17:24:21.288Z,8.34
2023-02-11T17:26:48.806Z,8.32
2023-02-11T17:29:20.819Z,8.27
2023-02-11T17:31:47.480Z,8.25
2023-02-11T17:34:14.072Z,8.23
2023-02-11T17:36:41.338Z,8.21
2023-02-11T17:39:08.833Z,8.18
2023-02-11T17:41:37.431Z,8.15
2023-02-11T17:44:04.650Z,8.13
2023-02-11T17:46:33.106Z,8.09
2023-02-11T17:48:59.701Z,8.06
2023-02-11T17:51:33.759Z,8.03
2023-02-11T17:54:02.361Z,8.00
2023-02-11T17:56:31.353Z,7.99
2023-02-11T17:58:57.889Z,7.97
2023-02-11T18:01:27.368Z,7.97
2023-02-11T18:03:53.876Z,7.95
2023-02-11T18:06:21.535Z,7.91
2023-02-11T18:08:48.586Z,7.87
2023-02-11T18:11:16.379Z,7.86
2023-02-11T18:13:45.030Z,7.82
2023-02-11T18:16:15.854Z,7.82
2023-02-11T18:18:43.433Z,7.78
2023-02-11T18:21:15.832Z,7.78
2023-02-11T18:23:43.328Z,7.76
2023-02-11T18:26:12.216Z,7.73
2023-02-11T18:28:39.849Z,7.73
2023-02-11T18:31:07.787Z,7.71
2023-02-11T18:33:35.497Z,7.71
2023-02-11T18:36:06.603Z,7.70
2023-02-11T18:38:33.453Z,7.69
2023-02-11T18:41:00.128Z,7.68
2023-02-11T18:43:31.611Z,7.66
2023-02-11T18:45:58.295Z,7.65
2023-02-11T18:48:27.030Z,7.64
2023-02-11T18:50:54.949Z,7.62
2023-02-11T18:53:22.092Z,7.63
2023-02-11T18:55:49.337Z,7.62
2023-02-11T18:58:15.983Z,7.60
2023-02-11T19:00:46.743Z,7.60
2023-02-11T19:03:13.263Z,7.59
2023-02-11T19:05:48.225Z,7.56
2023-02-11T19:08:16.103Z,7.55
2023-02-11T19:10:45.272Z,7.51
2023-02-11T19:13:12.533Z,7.48
2023-02-11T19:15:46.300Z,7.48
2023-02-11T19:18:14.194Z,7.47
2023-02-11T19:20:42.348Z,7.48
2023-02-11T19:23:09.673Z,7.46
2023-02-11T19:25:36.873Z,7.46
2023-02-11T19:28:03.845Z,7.46
2023-02-11T19:30:30.637Z,7.44
2023-02-11T19:32:57.710Z,7.44
2023-02-11T19:35:25.072Z,7.43
2023-02-11T19:37:51.506Z,7.43
2023-02-11T19:40:19.143Z,7.40
2023-02-11T19:42:45.585Z,7.41
2023-02-11T19:45:12.076Z,7.40
2023-02-11T19:47:38.601Z,7.39
2023-02-11T19:50:06.207Z,7.39
2023-02-11T19:52:32.912Z,7.38
2023-02-11T19:55:00.334Z,7.39
2023-02-11T19:57:26.922Z,7.37
2023-02-11T19:59:54.828Z,7.37
2023-02-11T20:02:21.517Z,7.35
2023-02-11T20:04:48.062Z,7.34
2023-02-11T20:07:14.634Z,7.35
2023-02-11T20:09:42.516Z,7.36
2023-02-11T20:12:09.240Z,7.36
2023-02-11T20:14:35.763Z,7.35
2023-02-11T20:17:02.474Z,7.34
2023-02-11T20:19:30.509Z,7.33
2023-02-11T20:21:57.118Z,7.33
2023-02-11T20:24:24.775Z,7.32
2023-02-11T20:26:55.234Z,7.31
2023-02-11T20:29:22.220Z,7.30
2023-02-11T20:31:50.250Z,7.30
2023-02-11T20:34:17.660Z,7.30
2023-02-11T20:36:51.327Z,7.32
2023-02-11T20:39:18.598Z,7.35
2023-02-11T20:41:45.992Z,7.36
2023-02-11T20:44:13.110Z,7.35
2023-02-11T20:46:42.924Z,7.34
2023-02-11T20:49:12.352Z,7.32
2023-02-11T20:51:39.621Z,7.32
2023-02-11T20:54:06.729Z,7.32
2023-02-11T20:56:36.912Z,7.30
2023-02-11T20:59:04.338Z,7.28
2023-02-11T21:01:33.981Z,7.28
2023-02-11T21:04:02.993Z,7.28
2023-02-11T21:06:35.954Z,7.28
2023-02-11T21:09:03.578Z,7.27
2023-02-11T21:11:31.020Z,7.28
2023-02-11T21:13:58.546Z,7.26
2023-02-11T21:16:25.558Z,7.26
2023-02-11T21:18:52.349Z,7.23
2023-02-11T21:21:19.387Z,7.23
2023-02-11T21:23:46.139Z,7.23
2023-02-11T21:26:13.549Z,7.24
2023-02-11T21:28:41.174Z,7.23
2023-02-11T21:31:08.223Z,7.22
2023-02-11T21:33:35.022Z,7.21
2023-02-11T21:36:04.310Z,7.21
2023-02-11T21:38:31.300Z,7.20
2023-02-11T21:41:05.608Z,7.19
2023-02-11T21:43:32.607Z,7.18
2023-02-11T21:45:59.474Z,7.18
2023-02-11T21:48:26.732Z,7.17
2023-02-11T21:50:54.031Z,7.18
2023-02-11T21:53:20.549Z,7.18
2023-02-11T21:55:47.162Z,7.18
2023-02-11T21:58:14.184Z,7.17
2023-02-11T22:00:40.792Z,7.16
2023-02-11T22:03:07.401Z,7.15
2023-02-11T22:05:33.890Z,7.21
2023-02-11T22:08:00.376Z,7.22
2023-02-11T22:10:26.904Z,7.22
2023-02-11T22:12:53.483Z,7.22
2023-02-11T22:15:20.117Z,7.24
2023-02-11T22:17:46.590Z,7.25
2023-02-11T22:20:13.176Z,7.24
2023-02-11T22:22:39.739Z,7.23
2023-02-11T22:25:06.735Z,7.21
2023-02-11T22:27:33.195Z,7.21
2023-02-11T22:29:59.699Z,7.19
2023-02-11T22:32:26.454Z,7.18
2023-02-11T22:34:53.545Z,7.18
2023-02-11T22:37:20.199Z,7.16
2023-02-11T22:39:46.834Z,7.14
2023-02-11T22:42:13.512Z,7.14
2023-02-11T22:44:40.134Z,7.13
2023-02-11T22:47:06.694Z,7.15
2023-02-11T22:49:33.221Z,7.14
2023-02-11T22:52:00.109Z,7.15
2023-02-11T22:54:26.860Z,7.14
2023-02-11T22:56:53.356Z,7.13
2023-02-11T22:59:20.591Z,7.13
2023-02-11T23:01:47.502Z,7.14
2023-02-11T23:04:16.980Z,7.14
2023-02-11T23:06:43.696Z,7.13
2023-02-11T23:09:14.227Z,7.12
2023-02-11T23:11:41.436Z,7.12
2023-02-11T23:14:10.177Z,7.12
2023-02-11T23:16:37.106Z,7.13
2023-02-11T23:19:07.282Z,7.13
2023-02-11T23:21:36.365Z,7.13
2023-02-11T23:24:10.404Z,7.12
2023-02-11T23:26:38.558Z,7.11
2023-02-11T23:29:06.174Z,7.11
2023-02-11T23:31:40.319Z,7.11
2023-02-11T23:34:08.288Z,7.10
2023-02-11T23:36:34.904Z,7.11
2023-02-11T23:39:01.766Z,7.10
2023-02-11T23:41:28.885Z,7.10
2023-02-11T23:43:57.815Z,7.08
2023-02-11T23:46:25.996Z,7.09
2023-02-11T23:48:53.111Z,7.09
2023-02-11T23:51:20.063Z,7.10
2023-02-11T23:53:49.053Z,7.10
2023-02-11T23:56:24.510Z,7.08
2023-02-11T23:58:53.478Z,7.08
